sensor_id;sensor_type;location;lat;lon;timestamp;temperature;humidity
53748;DHT22;39655;53.210;5.768;2022-08-04T00:00:08;22.00;73.90
53748;DHT22;39655;53.210;5.768;2022-08-04T00:05:29;22.00;74.20
53748;DHT22;39655;53.210;5.768;2022-08-04T00:10:38;22.00;74.50
53748;DHT22;39655;53.210;5.768;2022-08-04T00:13:06;21.90;74.50
53748;DHT22;39655;53.210;5.768;2022-08-04T00:15:33;21.80;74.70
53748;DHT22;39655;53.210;5.768;2022-08-04T00:18:06;21.80;74.80
53748;DHT22;39655;53.210;5.768;2022-08-04T00:20:34;21.80;74.50
53748;DHT22;39655;53.210;5.768;2022-08-04T00:23:02;21.80;74.60
53748;DHT22;39655;53.210;5.768;2022-08-04T00:25:30;21.80;74.60
53748;DHT22;39655;53.210;5.768;2022-08-04T00:27:56;21.80;74.50
53748;DHT22;39655;53.210;5.768;2022-08-04T00:30:24;21.80;74.60
53748;DHT22;39655;53.210;5.768;2022-08-04T00:32:51;21.80;74.60
53748;DHT22;39655;53.210;5.768;2022-08-04T00:35:17;21.70;74.60
53748;DHT22;39655;53.210;5.768;2022-08-04T00:37:44;21.80;74.90
53748;DHT22;39655;53.210;5.768;2022-08-04T00:40:33;21.70;75.00
53748;DHT22;39655;53.210;5.768;2022-08-04T00:43:09;21.70;75.20
53748;DHT22;39655;53.210;5.768;2022-08-04T00:46:03;21.60;75.40
53748;DHT22;39655;53.210;5.768;2022-08-04T00:51:30;21.50;75.60
53748;DHT22;39655;53.210;5.768;2022-08-04T00:59:56;21.40;75.90
53748;DHT22;39655;53.210;5.768;2022-08-04T01:02:35;21.40;76.20
53748;DHT22;39655;53.210;5.768;2022-08-04T01:05:06;21.40;76.30
53748;DHT22;39655;53.210;5.768;2022-08-04T01:16:34;21.30;76.50
53748;DHT22;39655;53.210;5.768;2022-08-04T01:30:03;21.10;76.90
53748;DHT22;39655;53.210;5.768;2022-08-04T01:32:47;21.10;77.00
53748;DHT22;39655;53.210;5.768;2022-08-04T01:35:20;21.10;77.20
53748;DHT22;39655;53.210;5.768;2022-08-04T01:38:10;21.10;77.50
53748;DHT22;39655;53.210;5.768;2022-08-04T01:40:40;21.10;77.60
53748;DHT22;39655;53.210;5.768;2022-08-04T01:43:07;21.10;77.60
53748;DHT22;39655;53.210;5.768;2022-08-04T01:45:36;21.10;77.60
53748;DHT22;39655;53.210;5.768;2022-08-04T01:48:02;21.00;77.80
53748;DHT22;39655;53.210;5.768;2022-08-04T01:50:33;21.00;78.00
53748;DHT22;39655;53.210;5.768;2022-08-04T01:52:59;21.00;78.00
53748;DHT22;39655;53.210;5.768;2022-08-04T01:55:27;21.00;78.10
53748;DHT22;39655;53.210;5.768;2022-08-04T01:57:58;20.90;78.30
53748;DHT22;39655;53.210;5.768;2022-08-04T02:00:28;20.90;78.50
53748;DHT22;39655;53.210;5.768;2022-08-04T02:02:55;20.80;78.60
53748;DHT22;39655;53.210;5.768;2022-08-04T02:05:24;20.80;78.90
53748;DHT22;39655;53.210;5.768;2022-08-04T02:08:16;20.80;79.00
53748;DHT22;39655;53.210;5.768;2022-08-04T02:11:07;20.80;79.10
53748;DHT22;39655;53.210;5.768;2022-08-04T02:19:34;20.90;79.10
53748;DHT22;39655;53.210;5.768;2022-08-04T02:22:08;20.90;79.10
53748;DHT22;39655;53.210;5.768;2022-08-04T02:24:57;20.90;79.20
53748;DHT22;39655;53.210;5.768;2022-08-04T02:33:41;20.90;79.00
53748;DHT22;39655;53.210;5.768;2022-08-04T02:39:30;20.90;79.10
53748;DHT22;39655;53.210;5.768;2022-08-04T02:42:13;20.90;79.10
53748;DHT22;39655;53.210;5.768;2022-08-04T02:44:51;20.80;79.20
53748;DHT22;39655;53.210;5.768;2022-08-04T02:47:32;20.90;79.20
53748;DHT22;39655;53.210;5.768;2022-08-04T02:50:00;20.80;79.00
53748;DHT22;39655;53.210;5.768;2022-08-04T02:52:28;20.90;79.30
53748;DHT22;39655;53.210;5.768;2022-08-04T02:54:58;20.90;79.30
53748;DHT22;39655;53.210;5.768;2022-08-04T02:57:29;20.90;79.20
53748;DHT22;39655;53.210;5.768;2022-08-04T03:00:09;20.90;79.00
53748;DHT22;39655;53.210;5.768;2022-08-04T03:08:59;21.00;78.50
53748;DHT22;39655;53.210;5.768;2022-08-04T03:29:09;21.10;78.40
53748;DHT22;39655;53.210;5.768;2022-08-04T03:40:17;21.20;77.80
53748;DHT22;39655;53.210;5.768;2022-08-04T03:43:00;21.30;78.00
53748;DHT22;39655;53.210;5.768;2022-08-04T03:48:31;21.20;78.00
53748;DHT22;39655;53.210;5.768;2022-08-04T03:51:26;21.20;78.30
53748;DHT22;39655;53.210;5.768;2022-08-04T03:57:37;21.20;78.10
53748;DHT22;39655;53.210;5.768;2022-08-04T04:03:17;21.20;78.30
53748;DHT22;39655;53.210;5.768;2022-08-04T04:09:40;21.10;79.10
53748;DHT22;39655;53.210;5.768;2022-08-04T04:17:44;20.90;80.00
53748;DHT22;39655;53.210;5.768;2022-08-04T04:20:24;20.90;80.30
53748;DHT22;39655;53.210;5.768;2022-08-04T04:28:35;20.80;81.20
53748;DHT22;39655;53.210;5.768;2022-08-04T04:31:32;20.70;81.20
53748;DHT22;39655;53.210;5.768;2022-08-04T04:46:14;20.70;81.50
53748;DHT22;39655;53.210;5.768;2022-08-04T04:57:28;20.70;81.50
53748;DHT22;39655;53.210;5.768;2022-08-04T05:00:08;20.70;81.60
53748;DHT22;39655;53.210;5.768;2022-08-04T05:05:54;20.70;81.60
53748;DHT22;39655;53.210;5.768;2022-08-04T05:18:53;20.90;81.60
53748;DHT22;39655;53.210;5.768;2022-08-04T05:21:44;20.90;81.80
53748;DHT22;39655;53.210;5.768;2022-08-04T05:24:18;21.00;81.90
53748;DHT22;39655;53.210;5.768;2022-08-04T05:26:55;21.00;82.10
53748;DHT22;39655;53.210;5.768;2022-08-04T05:29:32;21.10;82.10
53748;DHT22;39655;53.210;5.768;2022-08-04T05:32:04;21.10;81.70
53748;DHT22;39655;53.210;5.768;2022-08-04T05:34:40;21.10;82.20
53748;DHT22;39655;53.210;5.768;2022-08-04T05:37:14;21.10;82.40
53748;DHT22;39655;53.210;5.768;2022-08-04T05:39:49;21.10;82.60
53748;DHT22;39655;53.210;5.768;2022-08-04T05:42:29;21.10;82.90
53748;DHT22;39655;53.210;5.768;2022-08-04T05:45:01;21.10;83.20
53748;DHT22;39655;53.210;5.768;2022-08-04T05:47:31;21.10;83.10
53748;DHT22;39655;53.210;5.768;2022-08-04T05:50:00;21.10;83.00
53748;DHT22;39655;53.210;5.768;2022-08-04T05:52:33;21.10;83.10
53748;DHT22;39655;53.210;5.768;2022-08-04T05:55:10;21.20;83.00
53748;DHT22;39655;53.210;5.768;2022-08-04T05:57:40;21.20;83.00
53748;DHT22;39655;53.210;5.768;2022-08-04T06:00:20;21.30;83.00
53748;DHT22;39655;53.210;5.768;2022-08-04T06:02:53;21.40;83.20
53748;DHT22;39655;53.210;5.768;2022-08-04T06:05:19;21.40;82.50
53748;DHT22;39655;53.210;5.768;2022-08-04T06:07:45;21.40;82.20
53748;DHT22;39655;53.210;5.768;2022-08-04T06:10:27;21.50;81.90
53748;DHT22;39655;53.210;5.768;2022-08-04T06:13:08;21.50;81.60
53748;DHT22;39655;53.210;5.768;2022-08-04T06:15:40;21.50;81.60
53748;DHT22;39655;53.210;5.768;2022-08-04T06:18:10;21.50;81.00
53748;DHT22;39655;53.210;5.768;2022-08-04T06:20:38;21.50;81.00
53748;DHT22;39655;53.210;5.768;2022-08-04T06:23:10;21.60;80.90
53748;DHT22;39655;53.210;5.768;2022-08-04T06:29:14;21.50;81.10
53748;DHT22;39655;53.210;5.768;2022-08-04T06:31:49;21.50;80.90
53748;DHT22;39655;53.210;5.768;2022-08-04T06:34:27;21.50;81.00
53748;DHT22;39655;53.210;5.768;2022-08-04T06:36:53;21.60;81.50
53748;DHT22;39655;53.210;5.768;2022-08-04T06:39:21;21.60;81.40
53748;DHT22;39655;53.210;5.768;2022-08-04T06:41:48;21.60;81.50
53748;DHT22;39655;53.210;5.768;2022-08-04T06:44:14;21.60;81.80
53748;DHT22;39655;53.210;5.768;2022-08-04T06:46:41;21.60;81.40
53748;DHT22;39655;53.210;5.768;2022-08-04T06:49:08;21.70;81.80
53748;DHT22;39655;53.210;5.768;2022-08-04T06:51:36;21.60;81.80
53748;DHT22;39655;53.210;5.768;2022-08-04T06:54:03;21.70;81.70
53748;DHT22;39655;53.210;5.768;2022-08-04T06:56:30;21.70;81.90
53748;DHT22;39655;53.210;5.768;2022-08-04T06:58:58;21.70;81.90
53748;DHT22;39655;53.210;5.768;2022-08-04T07:01:25;21.70;81.80
53748;DHT22;39655;53.210;5.768;2022-08-04T07:03:52;21.70;82.00
53748;DHT22;39655;53.210;5.768;2022-08-04T07:06:22;21.70;81.90
53748;DHT22;39655;53.210;5.768;2022-08-04T07:08:50;21.80;82.40
53748;DHT22;39655;53.210;5.768;2022-08-04T07:11:16;21.80;82.70
53748;DHT22;39655;53.210;5.768;2022-08-04T07:13:44;21.80;82.80
53748;DHT22;39655;53.210;5.768;2022-08-04T07:16:13;21.80;82.70
53748;DHT22;39655;53.210;5.768;2022-08-04T07:18:40;22.00;82.80
53748;DHT22;39655;53.210;5.768;2022-08-04T07:21:06;22.00;82.70
53748;DHT22;39655;53.210;5.768;2022-08-04T07:23:32;22.00;82.80
53748;DHT22;39655;53.210;5.768;2022-08-04T07:25:58;22.00;83.20
53748;DHT22;39655;53.210;5.768;2022-08-04T07:28:28;22.00;83.60
53748;DHT22;39655;53.210;5.768;2022-08-04T07:30:56;22.00;83.50
53748;DHT22;39655;53.210;5.768;2022-08-04T07:33:23;22.10;83.60
53748;DHT22;39655;53.210;5.768;2022-08-04T07:35:51;22.10;83.80
53748;DHT22;39655;53.210;5.768;2022-08-04T07:38:17;22.20;83.60
53748;DHT22;39655;53.210;5.768;2022-08-04T07:40:44;22.20;83.30
53748;DHT22;39655;53.210;5.768;2022-08-04T07:43:16;22.30;83.60
53748;DHT22;39655;53.210;5.768;2022-08-04T07:45:42;22.40;83.60
53748;DHT22;39655;53.210;5.768;2022-08-04T07:48:09;22.50;83.50
53748;DHT22;39655;53.210;5.768;2022-08-04T07:50:36;22.50;83.50
53748;DHT22;39655;53.210;5.768;2022-08-04T07:53:03;22.60;83.20
53748;DHT22;39655;53.210;5.768;2022-08-04T07:55:31;22.70;82.10
53748;DHT22;39655;53.210;5.768;2022-08-04T07:58:03;22.80;81.80
53748;DHT22;39655;53.210;5.768;2022-08-04T08:00:34;22.90;82.00
53748;DHT22;39655;53.210;5.768;2022-08-04T08:03:04;23.00;82.10
53748;DHT22;39655;53.210;5.768;2022-08-04T08:05:34;23.10;81.80
53748;DHT22;39655;53.210;5.768;2022-08-04T08:10:49;23.40;80.10
53748;DHT22;39655;53.210;5.768;2022-08-04T08:13:15;23.50;78.90
53748;DHT22;39655;53.210;5.768;2022-08-04T08:15:45;23.50;77.90
53748;DHT22;39655;53.210;5.768;2022-08-04T08:18:15;23.60;77.40
53748;DHT22;39655;53.210;5.768;2022-08-04T08:20:43;23.60;76.20
53748;DHT22;39655;53.210;5.768;2022-08-04T08:23:10;23.80;75.90
53748;DHT22;39655;53.210;5.768;2022-08-04T08:25:38;23.80;74.60
53748;DHT22;39655;53.210;5.768;2022-08-04T08:28:05;24.00;74.90
53748;DHT22;39655;53.210;5.768;2022-08-04T08:30:34;24.00;74.10
53748;DHT22;39655;53.210;5.768;2022-08-04T08:33:05;23.90;74.90
53748;DHT22;39655;53.210;5.768;2022-08-04T08:35:37;23.90;74.40
53748;DHT22;39655;53.210;5.768;2022-08-04T08:38:10;23.90;75.00
53748;DHT22;39655;53.210;5.768;2022-08-04T08:40:51;24.00;74.30
53748;DHT22;39655;53.210;5.768;2022-08-04T08:49:05;24.20;71.70
53748;DHT22;39655;53.210;5.768;2022-08-04T08:57:35;24.40;69.10
53748;DHT22;39655;53.210;5.768;2022-08-04T09:03:37;24.70;68.50
53748;DHT22;39655;53.210;5.768;2022-08-04T09:11:40;25.00;67.90
53748;DHT22;39655;53.210;5.768;2022-08-04T09:14:18;25.10;67.20
53748;DHT22;39655;53.210;5.768;2022-08-04T09:17:09;25.20;65.00
53748;DHT22;39655;53.210;5.768;2022-08-04T09:19:41;25.20;65.90
53748;DHT22;39655;53.210;5.768;2022-08-04T09:22:59;25.20;64.80
53748;DHT22;39655;53.210;5.768;2022-08-04T09:25:36;25.20;62.60
53748;DHT22;39655;53.210;5.768;2022-08-04T09:28:10;25.30;62.70
53748;DHT22;39655;53.210;5.768;2022-08-04T09:31:08;25.30;66.00
53748;DHT22;39655;53.210;5.768;2022-08-04T09:36:06;24.90;68.70
53748;DHT22;39655;53.210;5.768;2022-08-04T09:38:48;25.00;66.80
53748;DHT22;39655;53.210;5.768;2022-08-04T09:41:35;25.00;63.80
53748;DHT22;39655;53.210;5.768;2022-08-04T09:47:23;25.10;64.00
53748;DHT22;39655;53.210;5.768;2022-08-04T09:50:06;25.20;63.20
53748;DHT22;39655;53.210;5.768;2022-08-04T09:53:10;25.30;62.00
53748;DHT22;39655;53.210;5.768;2022-08-04T10:01:00;25.10;61.20
53748;DHT22;39655;53.210;5.768;2022-08-04T10:03:31;25.30;60.30
53748;DHT22;39655;53.210;5.768;2022-08-04T10:06:09;25.30;60.00
53748;DHT22;39655;53.210;5.768;2022-08-04T10:11:36;25.50;61.50
53748;DHT22;39655;53.210;5.768;2022-08-04T10:14:12;25.60;60.30
53748;DHT22;39655;53.210;5.768;2022-08-04T10:19:34;25.70;58.40
53748;DHT22;39655;53.210;5.768;2022-08-04T10:27:53;25.70;56.10
53748;DHT22;39655;53.210;5.768;2022-08-04T10:30:20;25.60;55.80
53748;DHT22;39655;53.210;5.768;2022-08-04T10:33:09;25.40;55.50
53748;DHT22;39655;53.210;5.768;2022-08-04T10:36:00;25.40;55.90
53748;DHT22;39655;53.210;5.768;2022-08-04T10:38:34;25.30;57.90
53748;DHT22;39655;53.210;5.768;2022-08-04T10:41:05;25.30;58.30
53748;DHT22;39655;53.210;5.768;2022-08-04T10:46:56;25.30;59.30
53748;DHT22;39655;53.210;5.768;2022-08-04T10:49:32;25.40;59.70
53748;DHT22;39655;53.210;5.768;2022-08-04T10:54:53;25.40;59.60
53748;DHT22;39655;53.210;5.768;2022-08-04T11:00:03;25.20;60.20
53748;DHT22;39655;53.210;5.768;2022-08-04T11:05:49;25.10;61.80
53748;DHT22;39655;53.210;5.768;2022-08-04T11:08:20;25.40;63.40
53748;DHT22;39655;53.210;5.768;2022-08-04T11:11:13;25.70;60.20
53748;DHT22;39655;53.210;5.768;2022-08-04T11:13:41;25.60;56.80
53748;DHT22;39655;53.210;5.768;2022-08-04T11:16:16;25.50;53.00
53748;DHT22;39655;53.210;5.768;2022-08-04T11:21:55;25.70;54.00
53748;DHT22;39655;53.210;5.768;2022-08-04T11:27:15;25.80;55.80
53748;DHT22;39655;53.210;5.768;2022-08-04T11:30:00;25.60;55.80
53748;DHT22;39655;53.210;5.768;2022-08-04T11:32:45;25.70;56.30
53748;DHT22;39655;53.210;5.768;2022-08-04T11:35:41;25.90;54.80
53748;DHT22;39655;53.210;5.768;2022-08-04T11:40:43;26.00;54.30
53748;DHT22;39655;53.210;5.768;2022-08-04T11:43:23;26.00;55.50
53748;DHT22;39655;53.210;5.768;2022-08-04T11:45:56;26.00;55.80
53748;DHT22;39655;53.210;5.768;2022-08-04T11:48:59;25.80;55.30
53748;DHT22;39655;53.210;5.768;2022-08-04T11:51:26;25.50;55.40
53748;DHT22;39655;53.210;5.768;2022-08-04T11:53:53;25.50;56.60
53748;DHT22;39655;53.210;5.768;2022-08-04T11:56:20;25.40;59.00
53748;DHT22;39655;53.210;5.768;2022-08-04T11:58:45;25.40;60.30
53748;DHT22;39655;53.210;5.768;2022-08-04T12:04:12;25.30;60.90
53748;DHT22;39655;53.210;5.768;2022-08-04T12:06:54;25.60;58.70
53748;DHT22;39655;53.210;5.768;2022-08-04T12:09:29;26.10;58.60
53748;DHT22;39655;53.210;5.768;2022-08-04T12:12:06;26.30;53.00
53748;DHT22;39655;53.210;5.768;2022-08-04T12:17:28;27.00;50.50
53748;DHT22;39655;53.210;5.768;2022-08-04T12:20:02;26.90;51.00
53748;DHT22;39655;53.210;5.768;2022-08-04T12:22:33;27.00;50.70
53748;DHT22;39655;53.210;5.768;2022-08-04T12:25:07;26.60;49.30
53748;DHT22;39655;53.210;5.768;2022-08-04T12:27:59;26.40;50.70
53748;DHT22;39655;53.210;5.768;2022-08-04T12:30:31;26.40;52.90
53748;DHT22;39655;53.210;5.768;2022-08-04T12:33:06;26.30;53.40
53748;DHT22;39655;53.210;5.768;2022-08-04T12:38:11;26.40;55.80
53748;DHT22;39655;53.210;5.768;2022-08-04T12:40:53;26.20;57.20
53748;DHT22;39655;53.210;5.768;2022-08-04T12:43:38;26.10;58.10
53748;DHT22;39655;53.210;5.768;2022-08-04T12:46:12;25.80;59.90
53748;DHT22;39655;53.210;5.768;2022-08-04T12:48:45;25.60;61.30
53748;DHT22;39655;53.210;5.768;2022-08-04T12:51:11;25.60;61.30
53748;DHT22;39655;53.210;5.768;2022-08-04T12:53:42;25.70;60.40
53748;DHT22;39655;53.210;5.768;2022-08-04T12:56:10;25.90;59.80
53748;DHT22;39655;53.210;5.768;2022-08-04T12:58:41;26.10;58.60
53748;DHT22;39655;53.210;5.768;2022-08-04T13:01:16;25.90;57.10
53748;DHT22;39655;53.210;5.768;2022-08-04T13:03:56;26.30;59.00
53748;DHT22;39655;53.210;5.768;2022-08-04T13:06:26;26.80;57.80
53748;DHT22;39655;53.210;5.768;2022-08-04T13:08:53;26.90;56.50
53748;DHT22;39655;53.210;5.768;2022-08-04T13:11:21;27.10;56.80
53748;DHT22;39655;53.210;5.768;2022-08-04T13:13:52;26.60;56.70
53748;DHT22;39655;53.210;5.768;2022-08-04T13:16:28;26.00;59.00
53748;DHT22;39655;53.210;5.768;2022-08-04T13:18:55;25.70;61.40
53748;DHT22;39655;53.210;5.768;2022-08-04T13:21:23;25.80;61.30
53748;DHT22;39655;53.210;5.768;2022-08-04T13:23:51;26.00;60.50
53748;DHT22;39655;53.210;5.768;2022-08-04T13:26:19;26.30;59.20
53748;DHT22;39655;53.210;5.768;2022-08-04T13:28:47;26.50;56.20
53748;DHT22;39655;53.210;5.768;2022-08-04T13:31:17;26.60;56.50
53748;DHT22;39655;53.210;5.768;2022-08-04T13:33:46;26.70;56.90
53748;DHT22;39655;53.210;5.768;2022-08-04T13:36:13;26.70;60.70
53748;DHT22;39655;53.210;5.768;2022-08-04T13:38:48;26.60;60.50
53748;DHT22;39655;53.210;5.768;2022-08-04T13:41:16;26.60;59.70
53748;DHT22;39655;53.210;5.768;2022-08-04T13:43:48;27.00;57.80
53748;DHT22;39655;53.210;5.768;2022-08-04T13:46:20;27.10;57.70
53748;DHT22;39655;53.210;5.768;2022-08-04T13:48:47;27.00;57.40
53748;DHT22;39655;53.210;5.768;2022-08-04T13:51:17;27.30;56.50
53748;DHT22;39655;53.210;5.768;2022-08-04T13:53:43;27.30;58.00
53748;DHT22;39655;53.210;5.768;2022-08-04T13:56:11;27.00;59.90
53748;DHT22;39655;53.210;5.768;2022-08-04T13:58:43;26.90;60.10
53748;DHT22;39655;53.210;5.768;2022-08-04T14:01:14;26.60;61.30
53748;DHT22;39655;53.210;5.768;2022-08-04T14:03:57;26.30;61.90
53748;DHT22;39655;53.210;5.768;2022-08-04T14:06:27;26.10;62.10
53748;DHT22;39655;53.210;5.768;2022-08-04T14:08:59;26.20;62.50
53748;DHT22;39655;53.210;5.768;2022-08-04T14:11:37;26.20;61.20
53748;DHT22;39655;53.210;5.768;2022-08-04T14:14:34;26.00;61.60
53748;DHT22;39655;53.210;5.768;2022-08-04T14:19:59;26.10;60.30
53748;DHT22;39655;53.210;5.768;2022-08-04T14:25:02;26.60;56.30
53748;DHT22;39655;53.210;5.768;2022-08-04T14:27:55;27.10;55.00
53748;DHT22;39655;53.210;5.768;2022-08-04T14:30:30;27.60;52.90
53748;DHT22;39655;53.210;5.768;2022-08-04T14:33:10;27.70;51.50
53748;DHT22;39655;53.210;5.768;2022-08-04T14:36:14;28.00;51.00
53748;DHT22;39655;53.210;5.768;2022-08-04T14:39:08;27.90;50.30
53748;DHT22;39655;53.210;5.768;2022-08-04T14:44:57;28.60;50.60
53748;DHT22;39655;53.210;5.768;2022-08-04T14:48:05;28.70;50.20
53748;DHT22;39655;53.210;5.768;2022-08-04T14:50:43;28.60;49.20
53748;DHT22;39655;53.210;5.768;2022-08-04T14:53:19;28.80;48.80
53748;DHT22;39655;53.210;5.768;2022-08-04T14:55:53;29.00;47.90
53748;DHT22;39655;53.210;5.768;2022-08-04T14:58:24;29.30;46.80
53748;DHT22;39655;53.210;5.768;2022-08-04T15:00:59;29.60;46.30
53748;DHT22;39655;53.210;5.768;2022-08-04T15:03:29;29.80;45.90
53748;DHT22;39655;53.210;5.768;2022-08-04T15:05:56;29.60;46.40
53748;DHT22;39655;53.210;5.768;2022-08-04T15:08:26;29.20;47.60
53748;DHT22;39655;53.210;5.768;2022-08-04T15:10:53;28.60;47.30
53748;DHT22;39655;53.210;5.768;2022-08-04T15:13:26;28.50;48.80
53748;DHT22;39655;53.210;5.768;2022-08-04T15:15:51;28.60;48.60
53748;DHT22;39655;53.210;5.768;2022-08-04T15:18:20;28.50;48.90
53748;DHT22;39655;53.210;5.768;2022-08-04T15:20:49;28.50;48.80
53748;DHT22;39655;53.210;5.768;2022-08-04T15:23:16;28.80;48.40
53748;DHT22;39655;53.210;5.768;2022-08-04T15:25:49;28.90;48.00
53748;DHT22;39655;53.210;5.768;2022-08-04T15:28:17;28.90;46.70
53748;DHT22;39655;53.210;5.768;2022-08-04T15:30:50;29.10;47.10
53748;DHT22;39655;53.210;5.768;2022-08-04T15:33:18;29.30;46.80
53748;DHT22;39655;53.210;5.768;2022-08-04T15:35:51;29.40;45.90
53748;DHT22;39655;53.210;5.768;2022-08-04T15:38:31;29.50;46.10
53748;DHT22;39655;53.210;5.768;2022-08-04T15:41:05;29.60;46.00
53748;DHT22;39655;53.210;5.768;2022-08-04T15:43:58;29.60;46.20
53748;DHT22;39655;53.210;5.768;2022-08-04T15:49:23;29.70;46.30
53748;DHT22;39655;53.210;5.768;2022-08-04T15:52:02;29.90;46.60
53748;DHT22;39655;53.210;5.768;2022-08-04T15:54:28;29.80;45.70
53748;DHT22;39655;53.210;5.768;2022-08-04T15:56:54;29.50;46.20
53748;DHT22;39655;53.210;5.768;2022-08-04T15:59:55;29.30;46.10
53748;DHT22;39655;53.210;5.768;2022-08-04T16:02:36;29.30;47.50
53748;DHT22;39655;53.210;5.768;2022-08-04T16:13:08;29.10;48.20
53748;DHT22;39655;53.210;5.768;2022-08-04T16:15:55;29.60;47.30
53748;DHT22;39655;53.210;5.768;2022-08-04T16:20:57;29.50;46.70
53748;DHT22;39655;53.210;5.768;2022-08-04T16:23:45;28.80;48.60
53748;DHT22;39655;53.210;5.768;2022-08-04T16:29:00;28.30;51.50
53748;DHT22;39655;53.210;5.768;2022-08-04T16:31:26;27.60;52.50
53748;DHT22;39655;53.210;5.768;2022-08-04T16:33:57;27.30;53.20
53748;DHT22;39655;53.210;5.768;2022-08-04T16:36:56;27.10;53.60
53748;DHT22;39655;53.210;5.768;2022-08-04T16:39:22;26.70;54.40
53748;DHT22;39655;53.210;5.768;2022-08-04T16:41:48;26.60;54.80
53748;DHT22;39655;53.210;5.768;2022-08-04T16:44:30;26.40;55.10
53748;DHT22;39655;53.210;5.768;2022-08-04T16:47:00;26.60;55.00
53748;DHT22;39655;53.210;5.768;2022-08-04T16:49:26;26.50;55.50
53748;DHT22;39655;53.210;5.768;2022-08-04T16:51:54;26.40;55.80
53748;DHT22;39655;53.210;5.768;2022-08-04T16:54:28;26.10;56.30
53748;DHT22;39655;53.210;5.768;2022-08-04T16:56:55;26.10;56.40
53748;DHT22;39655;53.210;5.768;2022-08-04T16:59:21;26.00;57.00
53748;DHT22;39655;53.210;5.768;2022-08-04T17:01:50;25.80;57.50
53748;DHT22;39655;53.210;5.768;2022-08-04T17:04:16;25.70;58.40
53748;DHT22;39655;53.210;5.768;2022-08-04T17:06:44;25.40;58.70
53748;DHT22;39655;53.210;5.768;2022-08-04T17:09:18;25.40;58.90
53748;DHT22;39655;53.210;5.768;2022-08-04T17:11:46;25.10;59.30
53748;DHT22;39655;53.210;5.768;2022-08-04T17:14:12;25.00;59.30
53748;DHT22;39655;53.210;5.768;2022-08-04T17:16:40;24.80;59.60
53748;DHT22;39655;53.210;5.768;2022-08-04T17:19:08;24.80;58.80
53748;DHT22;39655;53.210;5.768;2022-08-04T17:21:35;24.70;58.50
53748;DHT22;39655;53.210;5.768;2022-08-04T17:24:02;24.70;58.80
53748;DHT22;39655;53.210;5.768;2022-08-04T17:26:34;24.50;58.00
53748;DHT22;39655;53.210;5.768;2022-08-04T17:29:02;24.60;57.60
53748;DHT22;39655;53.210;5.768;2022-08-04T17:31:29;24.50;58.20
53748;DHT22;39655;53.210;5.768;2022-08-04T17:34:00;24.50;58.80
53748;DHT22;39655;53.210;5.768;2022-08-04T17:36:30;24.50;59.20
53748;DHT22;39655;53.210;5.768;2022-08-04T17:39:13;24.40;59.80
53748;DHT22;39655;53.210;5.768;2022-08-04T17:41:39;24.30;59.80
53748;DHT22;39655;53.210;5.768;2022-08-04T17:44:05;24.20;60.10
53748;DHT22;39655;53.210;5.768;2022-08-04T17:46:39;24.20;59.70
53748;DHT22;39655;53.210;5.768;2022-08-04T17:51:55;24.20;60.50
53748;DHT22;39655;53.210;5.768;2022-08-04T17:54:28;24.40;60.20
53748;DHT22;39655;53.210;5.768;2022-08-04T17:57:17;24.60;59.90
53748;DHT22;39655;53.210;5.768;2022-08-04T17:59:44;25.30;58.40
53748;DHT22;39655;53.210;5.768;2022-08-04T18:02:11;25.60;56.90
53748;DHT22;39655;53.210;5.768;2022-08-04T18:04:48;25.80;56.40
53748;DHT22;39655;53.210;5.768;2022-08-04T18:07:16;26.00;56.30
53748;DHT22;39655;53.210;5.768;2022-08-04T18:09:51;25.60;56.90
53748;DHT22;39655;53.210;5.768;2022-08-04T18:12:33;25.30;58.00
53748;DHT22;39655;53.210;5.768;2022-08-04T18:15:19;25.10;59.20
53748;DHT22;39655;53.210;5.768;2022-08-04T18:17:47;25.30;58.40
53748;DHT22;39655;53.210;5.768;2022-08-04T18:20:16;25.10;59.50
53748;DHT22;39655;53.210;5.768;2022-08-04T18:23:02;24.80;60.70
53748;DHT22;39655;53.210;5.768;2022-08-04T18:25:27;24.40;61.40
53748;DHT22;39655;53.210;5.768;2022-08-04T18:28:05;24.20;61.00
53748;DHT22;39655;53.210;5.768;2022-08-04T18:30:41;24.10;61.10
53748;DHT22;39655;53.210;5.768;2022-08-04T18:33:27;23.90;61.30
53748;DHT22;39655;53.210;5.768;2022-08-04T18:35:52;23.70;62.10
53748;DHT22;39655;53.210;5.768;2022-08-04T18:38:18;23.50;62.60
53748;DHT22;39655;53.210;5.768;2022-08-04T18:40:44;23.50;62.90
53748;DHT22;39655;53.210;5.768;2022-08-04T18:43:09;23.40;63.30
53748;DHT22;39655;53.210;5.768;2022-08-04T18:45:35;23.30;63.90
53748;DHT22;39655;53.210;5.768;2022-08-04T18:48:03;23.20;64.30
53748;DHT22;39655;53.210;5.768;2022-08-04T18:50:32;23.00;64.90
53748;DHT22;39655;53.210;5.768;2022-08-04T18:52:57;23.00;64.50
53748;DHT22;39655;53.210;5.768;2022-08-04T18:55:23;22.90;64.80
53748;DHT22;39655;53.210;5.768;2022-08-04T18:57:49;22.70;64.90
53748;DHT22;39655;53.210;5.768;2022-08-04T19:00:15;22.70;65.40
53748;DHT22;39655;53.210;5.768;2022-08-04T19:02:40;22.60;65.80
53748;DHT22;39655;53.210;5.768;2022-08-04T19:05:06;22.60;66.50
53748;DHT22;39655;53.210;5.768;2022-08-04T19:07:32;22.40;67.10
53748;DHT22;39655;53.210;5.768;2022-08-04T19:09:58;22.40;67.20
53748;DHT22;39655;53.210;5.768;2022-08-04T19:12:26;22.30;67.40
53748;DHT22;39655;53.210;5.768;2022-08-04T19:14:52;22.30;67.50
53748;DHT22;39655;53.210;5.768;2022-08-04T19:17:17;22.10;67.60
53748;DHT22;39655;53.210;5.768;2022-08-04T19:19:43;22.10;67.70
53748;DHT22;39655;53.210;5.768;2022-08-04T19:22:09;22.00;68.20
53748;DHT22;39655;53.210;5.768;2022-08-04T19:24:34;22.00;68.40
53748;DHT22;39655;53.210;5.768;2022-08-04T19:27:04;21.90;68.70
53748;DHT22;39655;53.210;5.768;2022-08-04T19:29:31;21.70;69.30
53748;DHT22;39655;53.210;5.768;2022-08-04T19:31:56;21.60;69.70
53748;DHT22;39655;53.210;5.768;2022-08-04T19:34:22;21.60;69.90
53748;DHT22;39655;53.210;5.768;2022-08-04T19:36:48;21.50;70.20
53748;DHT22;39655;53.210;5.768;2022-08-04T19:39:13;21.40;70.70
53748;DHT22;39655;53.210;5.768;2022-08-04T19:41:39;21.20;71.10
53748;DHT22;39655;53.210;5.768;2022-08-04T19:44:05;21.10;71.50
53748;DHT22;39655;53.210;5.768;2022-08-04T19:46:32;21.10;72.10
53748;DHT22;39655;53.210;5.768;2022-08-04T19:48:58;21.00;72.30
53748;DHT22;39655;53.210;5.768;2022-08-04T19:51:31;20.90;72.60
53748;DHT22;39655;53.210;5.768;2022-08-04T19:54:05;20.90;72.80
53748;DHT22;39655;53.210;5.768;2022-08-04T19:56:43;20.90;72.70
53748;DHT22;39655;53.210;5.768;2022-08-04T19:59:20;20.90;72.40
53748;DHT22;39655;53.210;5.768;2022-08-04T20:02:17;20.90;72.70
53748;DHT22;39655;53.210;5.768;2022-08-04T20:04:43;20.90;72.70
53748;DHT22;39655;53.210;5.768;2022-08-04T20:07:09;20.80;72.80
53748;DHT22;39655;53.210;5.768;2022-08-04T20:09:37;20.80;72.70
53748;DHT22;39655;53.210;5.768;2022-08-04T20:12:03;20.80;73.00